createdAt,value
2022-11-29T00:00:20.896Z,90927.63
2022-11-29T00:01:42.171Z,90929.38
2022-11-29T00:03:03.301Z,90933.47
2022-11-29T00:04:24.700Z,90926.25
2022-11-29T00:05:45.769Z,90923.53
2022-11-29T00:07:07.090Z,90926.25
2022-11-29T00:08:28.232Z,90924.66
2022-11-29T00:09:49.451Z,90931.84
2022-11-29T00:11:39.608Z,90932.03
2022-11-29T00:13:00.822Z,90926.59
2022-11-29T00:14:23.391Z,90927.75
2022-11-29T00:15:44.509Z,90928.88
2022-11-29T00:17:06.217Z,90928.44
2022-11-29T00:18:28.125Z,90927.47
2022-11-29T00:19:49.376Z,90922.22
2022-11-29T00:21:10.561Z,90923.38
2022-11-29T00:22:31.258Z,90925.13
2022-11-29T00:23:52.477Z,90925.91
2022-11-29T00:25:13.534Z,90920.06
2022-11-29T00:26:34.907Z,90929.41
2022-11-29T00:27:56.002Z,90923.19
2022-11-29T00:29:17.510Z,90926.50
2022-11-29T00:30:38.731Z,90923.97
2022-11-29T00:32:00.257Z,90922.41
2022-11-29T00:33:21.081Z,90927.47
2022-11-29T00:34:42.493Z,90929.41
2022-11-29T00:36:03.831Z,90932.53
2022-11-29T00:37:25.162Z,90929.66
2022-11-29T00:38:46.607Z,90935.34
2022-11-29T00:40:08.371Z,90933.00
2022-11-29T00:41:29.172Z,90936.81
2022-11-29T00:42:50.325Z,90933.94
2022-11-29T00:44:16.807Z,90934.88
2022-11-29T00:45:40.658Z,90930.28
2022-11-29T00:47:01.969Z,90923.88
2022-11-29T00:48:23.531Z,90926.59
2022-11-29T00:49:44.639Z,90928.53
2022-11-29T00:51:06.547Z,90934.97
2022-11-29T00:52:27.255Z,90934.72
2022-11-29T00:53:48.263Z,90931.56
2022-11-29T00:55:09.612Z,90934.28
2022-11-29T00:56:30.707Z,90929.41
2022-11-29T00:57:51.832Z,90922.34
2022-11-29T00:59:12.960Z,90929.66
2022-11-29T01:00:34.082Z,90924.09
2022-11-29T01:01:55.157Z,90918.25
2022-11-29T01:03:17.085Z,90914.72
2022-11-29T01:04:37.927Z,90919.88
2022-11-29T01:06:08.437Z,90934.81
2022-11-29T01:07:29.410Z,90926.03
2022-11-29T01:08:50.789Z,90929.34
2022-11-29T01:10:11.785Z,90924.44
2022-11-29T01:11:33.477Z,90920.19
2022-11-29T01:12:55.366Z,90917.47
2022-11-29T01:14:16.403Z,90915.91
2022-11-29T01:15:37.643Z,90924.44
2022-11-29T01:16:58.739Z,90911.97
2022-11-29T01:18:20.000Z,90904.63
2022-11-29T01:19:44.114Z,90907.69
2022-11-29T01:21:10.514Z,90916.25
2022-11-29T01:22:31.348Z,90907.88
2022-11-29T01:23:54.225Z,90908.03
2022-11-29T01:25:15.525Z,90907.09
2022-11-29T01:26:36.359Z,90903.75
2022-11-29T01:27:57.499Z,90903.41
2022-11-29T01:29:18.967Z,90905.78
2022-11-29T01:30:40.132Z,90903.25
2022-11-29T01:32:01.229Z,90902.88
2022-11-29T01:33:22.720Z,90899.75
2022-11-29T01:34:44.175Z,90912.84
2022-11-29T01:36:07.288Z,90908.56
2022-11-29T01:37:31.484Z,90898.84
2022-11-29T01:38:53.105Z,90899.63
2022-11-29T01:40:14.440Z,90903.13
2022-11-29T01:41:37.265Z,90905.41
2022-11-29T01:42:58.389Z,90902.28
2022-11-29T01:44:19.456Z,90905.16
2022-11-29T01:45:40.963Z,90909.63
2022-11-29T01:47:01.879Z,90912.09
2022-11-29T01:48:27.718Z,90904.34
2022-11-29T01:49:50.110Z,90903.75
2022-11-29T01:51:11.606Z,90902.16
2022-11-29T01:52:33.177Z,90918.88
2022-11-29T01:53:57.375Z,90910.97
2022-11-29T01:55:19.110Z,90908.28
2022-11-29T01:56:42.905Z,90912.53
2022-11-29T01:58:06.397Z,90902.09
2022-11-29T01:59:29.694Z,90906.09
2022-11-29T02:00:50.810Z,90913.50
2022-11-29T02:02:22.305Z,90903.28
2022-11-29T02:03:43.110Z,90899.31
2022-11-29T02:05:05.445Z,90896.91
2022-11-29T02:06:28.413Z,90897.72
2022-11-29T02:07:52.552Z,90895.81
2022-11-29T02:09:22.762Z,90897.56
2022-11-29T02:11:07.707Z,90893.59
2022-11-29T02:12:53.505Z,90900.41
2022-11-29T02:14:26.703Z,90901.91
2022-11-29T02:16:03.826Z,90898.06
2022-11-29T02:17:36.739Z,90899.81
2022-11-29T02:19:18.147Z,90902.50
2022-11-29T02:20:47.657Z,90899.63
2022-11-29T02:22:31.978Z,90896.00
2022-11-29T02:24:36.102Z,90898.78
2022-11-29T02:26:15.628Z,90889.44
2022-11-29T02:27:45.719Z,90888.47
2022-11-29T02:29:23.211Z,90887.53
2022-11-29T02:30:50.339Z,90887.94
2022-11-29T02:32:59.590Z,90896.00
2022-11-29T02:34:53.640Z,90892.13
2022-11-29T02:36:23.507Z,90895.88
2022-11-29T02:37:44.398Z,90896.31
2022-11-29T02:39:05.086Z,90892.84
2022-11-29T02:40:50.801Z,90895.63
2022-11-29T02:42:54.392Z,90897.59
2022-11-29T02:44:45.717Z,90896.31
2022-11-29T02:46:30.040Z,90893.78
2022-11-29T02:48:02.773Z,90895.34
2022-11-29T02:49:38.721Z,90900.41
2022-11-29T02:51:23.509Z,90896.22
2022-11-29T02:52:54.975Z,90901.38
2022-11-29T02:54:50.301Z,90895.19
2022-11-29T02:56:37.485Z,90900.13
2022-11-29T02:58:09.680Z,90901.81
2022-11-29T02:59:48.710Z,90908.09
2022-11-29T03:01:16.649Z,90908.03
2022-11-29T03:02:57.047Z,90909.91
2022-11-29T03:04:45.740Z,90911.47
2022-11-29T03:06:21.914Z,90913.50
2022-11-29T03:08:01.047Z,90912.13
2022-11-29T03:09:40.587Z,90915.06
2022-11-29T03:11:38.149Z,90919.78
2022-11-29T03:13:00.315Z,90918.63
2022-11-29T03:14:39.917Z,90919.09
2022-11-29T03:16:17.321Z,90917.50
2022-11-29T03:18:06.637Z,90915.25
2022-11-29T03:19:55.296Z,90916.81
2022-11-29T03:21:45.944Z,90917.41
2022-11-29T03:23:28.330Z,90914.69
2022-11-29T03:25:17.038Z,90916.88
2022-11-29T03:27:01.062Z,90907.97
2022-11-29T03:28:24.735Z,90912.69
2022-11-29T03:29:58.101Z,90915.03
2022-11-29T03:31:30.037Z,90913.09
2022-11-29T03:33:05.081Z,90919.38
2022-11-29T03:34:55.694Z,90919.22
2022-11-29T03:36:36.686Z,90920.78
2022-11-29T03:38:35.308Z,90918.06
2022-11-29T03:40:07.140Z,90914.31
2022-11-29T03:41:40.921Z,90913.72
2022-11-29T03:43:01.807Z,90914.66
2022-11-29T03:44:28.069Z,90911.53
2022-11-29T03:46:04.627Z,90911.34
2022-11-29T03:47:36.101Z,90917.19
2022-11-29T03:49:03.616Z,90912.94
2022-11-29T03:50:57.552Z,90917.03
2022-11-29T03:52:47.767Z,90918.78
2022-11-29T03:54:13.135Z,90912.94
2022-11-29T03:55:50.501Z,90917.56
2022-11-29T03:57:17.732Z,90917.38
2022-11-29T03:58:56.934Z,90917.13
2022-11-29T04:00:18.942Z,90909.91
2022-11-29T04:02:10.768Z,90911.81
2022-11-29T04:03:53.313Z,90910.25
2022-11-29T04:05:29.732Z,90913.91
2022-11-29T04:07:12.237Z,90907.09
2022-11-29T04:09:04.315Z,90923.69
2022-11-29T04:10:39.609Z,90916.25
2022-11-29T04:12:48.922Z,90920.72
2022-11-29T04:14:26.264Z,90925.00
2022-11-29T04:16:07.549Z,90919.69
2022-11-29T04:17:45.163Z,90920.28
2022-11-29T04:19:22.207Z,90923.78
2022-11-29T04:21:01.755Z,90913.06
2022-11-29T04:22:54.986Z,90917.75
2022-11-29T04:24:19.198Z,90909.81
2022-11-29T04:26:01.138Z,90911.03
2022-11-29T04:27:48.698Z,90915.13
2022-11-29T04:29:25.202Z,90912.16
2022-11-29T04:31:24.140Z,90910.41
2022-11-29T04:33:18.694Z,90912.88
2022-11-29T04:35:17.088Z,90912.44
2022-11-29T04:37:14.123Z,90918.31
2022-11-29T04:38:48.809Z,90915.91
2022-11-29T04:40:18.465Z,90916.28
2022-11-29T04:42:24.785Z,90910.63
2022-11-29T04:44:07.626Z,90915.91
2022-11-29T04:46:02.452Z,90917.66
2022-11-29T04:47:33.801Z,90923.44
2022-11-29T04:49:35.301Z,90919.34
2022-11-29T04:51:02.197Z,90931.22
2022-11-29T04:52:55.509Z,90931.72
2022-11-29T04:54:19.271Z,90922.56
2022-11-29T04:55:53.753Z,90928.50
2022-11-29T04:57:32.806Z,90934.69
2022-11-29T04:59:03.611Z,90939.03
2022-11-29T05:00:25.550Z,90935.97
2022-11-29T05:02:11.309Z,90941.31
2022-11-29T05:03:42.259Z,90937.41
2022-11-29T05:05:24.530Z,90937.31
2022-11-29T05:07:03.471Z,90939.75
2022-11-29T05:08:38.590Z,90935.97
2022-11-29T05:10:14.884Z,90935.72
2022-11-29T05:11:58.746Z,90930.69
2022-11-29T05:13:44.484Z,90939.22
2022-11-29T05:15:14.877Z,90935.72
2022-11-29T05:16:35.991Z,90943.75
2022-11-29T05:18:17.314Z,90939.16
2022-11-29T05:19:53.672Z,90934.88
2022-11-29T05:21:24.996Z,90943.13
2022-11-29T05:23:04.675Z,90936.69
2022-11-29T05:24:58.959Z,90942.78
2022-11-29T05:26:29.520Z,90941.75
2022-11-29T05:28:25.929Z,90942.34
2022-11-29T05:30:02.011Z,90941.22
2022-11-29T05:31:50.362Z,90937.38
2022-11-29T05:33:24.748Z,90932.13
2022-11-29T05:34:57.935Z,90924.56
2022-11-29T05:36:40.086Z,90925.34
2022-11-29T05:38:19.604Z,90930.63
2022-11-29T05:39:51.426Z,90931.78
2022-11-29T05:41:18.263Z,90933.34
2022-11-29T05:43:07.279Z,90931.78
2022-11-29T05:44:37.989Z,90934.75
2022-11-29T05:46:12.821Z,90934.75
2022-11-29T05:47:46.908Z,90929.50
2022-11-29T05:49:27.556Z,90937.34
2022-11-29T05:50:58.377Z,90932.31
2022-11-29T05:52:55.559Z,90928.53
2022-11-29T05:54:33.843Z,90944.13
2022-11-29T05:56:03.990Z,90935.59
2022-11-29T05:57:40.320Z,90937.56
2022-11-29T05:59:17.202Z,90932.41
2022-11-29T06:00:49.814Z,90935.97
2022-11-29T06:02:26.158Z,90933.69
2022-11-29T06:04:15.146Z,90925.97
2022-11-29T06:05:57.076Z,90923.91
2022-11-29T06:07:26.128Z,90932.06
2022-11-29T06:08:56.966Z,90932.19
2022-11-29T06:10:20.006Z,90936.53
2022-11-29T06:11:55.007Z,90935.75
2022-11-29T06:13:31.538Z,90936.13
2022-11-29T06:14:57.097Z,90940.63
2022-11-29T06:16:57.203Z,90936.75
2022-11-29T06:18:27.433Z,90937.00
2022-11-29T06:20:27.651Z,90936.63
2022-11-29T06:22:05.797Z,90937.25
2022-11-29T06:23:36.648Z,90935.84
2022-11-29T06:25:23.633Z,90936.81
2022-11-29T06:26:44.985Z,90936.28
2022-11-29T06:28:32.631Z,90934.59
2022-11-29T06:30:15.026Z,90936.38
2022-11-29T06:31:43.488Z,90946.97
2022-11-29T06:33:28.949Z,90938.00
2022-11-29T06:35:09.562Z,90936.66
2022-11-29T06:37:08.217Z,90939.63
2022-11-29T06:38:33.184Z,90933.34
2022-11-29T06:39:57.591Z,90945.25
2022-11-29T06:41:21.550Z,90940.00
2022-11-29T06:42:43.182Z,90944.69
2022-11-29T06:44:05.591Z,90941.03
2022-11-29T06:45:27.073Z,90941.06
2022-11-29T06:47:24.149Z,90941.47
2022-11-29T06:48:56.568Z,90938.75
2022-11-29T06:50:32.860Z,90944.97
2022-11-29T06:52:18.476Z,90938.13
2022-11-29T06:53:54.332Z,90944.59
2022-11-29T06:55:22.643Z,90948.53
2022-11-29T06:56:55.772Z,90946.78
2022-11-29T06:58:34.466Z,90952.66
2022-11-29T07:00:12.910Z,90948.44
2022-11-29T07:01:59.722Z,90948.31
2022-11-29T07:03:59.137Z,90963.78
2022-11-29T07:05:30.550Z,90953.81
2022-11-29T07:06:51.710Z,90953.84
2022-11-29T07:08:17.332Z,90951.16
2022-11-29T07:09:38.497Z,90946.72
2022-11-29T07:11:00.601Z,90954.53
2022-11-29T07:12:21.800Z,90951.84
2022-11-29T07:13:42.778Z,90953.41
2022-11-29T07:15:05.510Z,90951.88
2022-11-29T07:16:34.024Z,90953.25
2022-11-29T07:18:13.442Z,90944.88
2022-11-29T07:19:50.905Z,90948.22
2022-11-29T07:21:36.734Z,90943.91
2022-11-29T07:23:10.977Z,90948.44
2022-11-29T07:24:49.846Z,90942.59
2022-11-29T07:26:38.487Z,90951.38
2022-11-29T07:28:17.375Z,90947.28
2022-11-29T07:30:14.173Z,90943.19
2022-11-29T07:32:03.543Z,90939.25
2022-11-29T07:33:54.792Z,90945.28
2022-11-29T07:35:23.087Z,90946.44
2022-11-29T07:37:00.538Z,90948.22
2022-11-29T07:38:58.311Z,90949.41
2022-11-29T07:40:49.825Z,90953.72
2022-11-29T07:42:30.426Z,90954.13
2022-11-29T07:44:30.727Z,90953.53
2022-11-29T07:45:51.810Z,90955.09
2022-11-29T07:47:15.597Z,90953.16
2022-11-29T07:48:36.761Z,90955.09
2022-11-29T07:49:57.857Z,90957.84
2022-11-29T07:51:19.267Z,90956.47
2022-11-29T07:52:40.477Z,90950.59
2022-11-29T07:54:01.718Z,90960.75
2022-11-29T07:55:26.030Z,90954.13
2022-11-29T07:56:47.510Z,90956.81
2022-11-29T07:58:12.830Z,90958.56
2022-11-29T07:59:34.035Z,90958.88
2022-11-29T08:00:54.931Z,90962.94
2022-11-29T08:02:26.822Z,90967.41
2022-11-29T08:03:48.193Z,90968.47
2022-11-29T08:05:09.881Z,90969.88
2022-11-29T08:06:31.121Z,90976.19
2022-11-29T08:07:53.647Z,90977.22
2022-11-29T08:09:14.849Z,90971.19
2022-11-29T08:10:36.101Z,90974.31
2022-11-29T08:11:57.169Z,90969.31
2022-11-29T08:13:20.824Z,90978.28
2022-11-29T08:14:41.916Z,90970.63
2022-11-29T08:16:03.517Z,90977.25
2022-11-29T08:17:25.882Z,90965.94
2022-11-29T08:18:46.828Z,90970.47
2022-11-29T08:20:09.726Z,90971.09
2022-11-29T08:21:30.774Z,90975.22
2022-11-29T08:22:57.107Z,90970.19
2022-11-29T08:24:18.159Z,90973.31
2022-11-29T08:25:39.837Z,90973.59
2022-11-29T08:27:00.975Z,90964.88
2022-11-29T08:28:22.096Z,90968.00
2022-11-29T08:29:43.392Z,90961.59
2022-11-29T08:31:06.930Z,90954.78
2022-11-29T08:32:28.457Z,90957.00
2022-11-29T08:33:49.472Z,90965.22
2022-11-29T08:35:10.612Z,90954.84
2022-11-29T08:36:31.880Z,90958.41
2022-11-29T08:37:54.125Z,90957.84
2022-11-29T08:39:15.219Z,90953.00
2022-11-29T08:40:36.521Z,90955.53
2022-11-29T08:41:57.448Z,90955.56
2022-11-29T08:43:18.676Z,90954.97
2022-11-29T08:44:39.950Z,90957.31
2022-11-29T08:46:01.429Z,90942.28
2022-11-29T08:47:37.568Z,90947.38
2022-11-29T08:48:58.690Z,90952.28
2022-11-29T08:50:19.752Z,90947.41
2022-11-29T08:51:40.723Z,90950.72
2022-11-29T08:53:20.322Z,90950.91
2022-11-29T08:54:41.409Z,90953.69
2022-11-29T08:56:17.062Z,90945.84
2022-11-29T08:57:43.914Z,90950.75
2022-11-29T08:59:05.781Z,90942.91
2022-11-29T09:00:26.820Z,90954.03
2022-11-29T09:01:48.088Z,90946.84
2022-11-29T09:03:27.957Z,90945.44
2022-11-29T09:04:48.873Z,90941.91
2022-11-29T09:06:13.000Z,90935.28
2022-11-29T09:07:34.395Z,90942.13
2022-11-29T09:08:56.534Z,90940.75
2022-11-29T09:10:17.528Z,90939.38
2022-11-29T09:11:38.980Z,90939.59
2022-11-29T09:13:00.249Z,90931.56
2022-11-29T09:14:22.869Z,90937.25
2022-11-29T09:15:43.974Z,90933.31
2022-11-29T09:17:05.060Z,90939.59
2022-11-29T09:19:50.225Z,90934.91
2022-11-29T09:21:13.597Z,90941.34
2022-11-29T09:22:34.377Z,90940.38
2022-11-29T09:23:59.324Z,90934.91
2022-11-29T09:25:20.463Z,90938.06
2022-11-29T09:26:42.290Z,90941.38
2022-11-29T09:28:03.580Z,90939.81
2022-11-29T09:29:24.545Z,90940.38
2022-11-29T09:30:45.847Z,90935.31
2022-11-29T09:32:07.134Z,90943.31
2022-11-29T09:33:28.379Z,90936.47
2022-11-29T09:34:49.177Z,90939.22
2022-11-29T09:36:11.647Z,90936.88
2022-11-29T09:37:33.269Z,90941.56
2022-11-29T09:38:54.516Z,90935.28
2022-11-29T09:40:19.772Z,90932.94
2022-11-29T09:42:01.145Z,90925.69
2022-11-29T09:43:36.930Z,90926.63
2022-11-29T09:45:09.584Z,90923.72
2022-11-29T09:46:33.533Z,90921.38
2022-11-29T09:48:03.642Z,90926.66
2022-11-29T09:49:46.262Z,90926.06
2022-11-29T09:51:28.139Z,90911.19
2022-11-29T09:53:18.714Z,90917.03
2022-11-29T09:54:51.884Z,90910.56
2022-11-29T09:56:23.972Z,90914.44
2022-11-29T09:57:46.116Z,90910.53
2022-11-29T09:59:17.214Z,90912.50
2022-11-29T10:00:47.338Z,90906.41
2022-11-29T10:02:21.810Z,90898.53
2022-11-29T10:03:48.762Z,90904.19
2022-11-29T10:05:25.197Z,90896.88
2022-11-29T10:07:06.713Z,90895.09
2022-11-29T10:08:42.059Z,90893.44
2022-11-29T10:10:11.269Z,90892.47
2022-11-29T10:12:04.258Z,90894.19
2022-11-29T10:13:26.617Z,90896.50
2022-11-29T10:14:58.419Z,90882.97
2022-11-29T10:17:04.440Z,90891.72
2022-11-29T10:18:27.059Z,90887.44
2022-11-29T10:19:53.086Z,90887.38
2022-11-29T10:21:21.088Z,90882.47
2022-11-29T10:23:09.471Z,90885.31
2022-11-29T10:24:33.058Z,90883.06
2022-11-29T10:25:56.633Z,90884.88
2022-11-29T10:27:23.961Z,90879.94
2022-11-29T10:28:47.737Z,90873.78
2022-11-29T10:30:14.602Z,90884.09
2022-11-29T10:31:39.271Z,90875.59
2022-11-29T10:33:00.989Z,90875.09
2022-11-29T10:34:25.533Z,90878.91
2022-11-29T10:35:48.528Z,90872.59
2022-11-29T10:37:32.765Z,90872.88
2022-11-29T10:38:59.685Z,90869.50
2022-11-29T10:40:32.306Z,90864.16
2022-11-29T10:42:01.461Z,90861.47
2022-11-29T10:43:23.992Z,90862.31
2022-11-29T10:44:45.132Z,90869.63
2022-11-29T10:46:15.572Z,90862.66
2022-11-29T10:47:36.947Z,90853.13
2022-11-29T10:49:04.925Z,90856.72
2022-11-29T10:50:28.598Z,90853.13
2022-11-29T10:51:49.709Z,90853.00
2022-11-29T10:53:14.943Z,90853.78
2022-11-29T10:54:42.549Z,90853.47
2022-11-29T10:56:29.354Z,90859.22
2022-11-29T10:58:10.569Z,90855.97
2022-11-29T10:59:33.201Z,90853.22
2022-11-29T11:01:15.525Z,90850.34
2022-11-29T11:02:37.555Z,90852.88
2022-11-29T11:04:00.613Z,90850.56
2022-11-29T11:05:26.602Z,90847.28
2022-11-29T11:06:56.955Z,90844.13
2022-11-29T11:08:18.324Z,90849.44
2022-11-29T11:09:48.717Z,90843.91
2022-11-29T11:11:12.304Z,90847.09
2022-11-29T11:12:34.719Z,90848.88
2022-11-29T11:14:00.298Z,90840.66
2022-11-29T11:15:24.109Z,90848.28
2022-11-29T11:16:45.341Z,90840.22
2022-11-29T11:18:21.210Z,90841.63
2022-11-29T11:19:42.515Z,90841.22
2022-11-29T11:21:04.762Z,90841.22
2022-11-29T11:22:27.102Z,90836.69
2022-11-29T11:23:54.640Z,90840.44
2022-11-29T11:25:35.232Z,90832.78
2022-11-29T11:26:57.135Z,90836.53
2022-11-29T11:28:22.328Z,90843.56
2022-11-29T11:29:44.613Z,90836.47
2022-11-29T11:31:08.795Z,90846.06
2022-11-29T11:32:30.142Z,90845.50
2022-11-29T11:33:51.429Z,90850.19
2022-11-29T11:35:24.380Z,90846.66
2022-11-29T11:36:45.501Z,90850.34
2022-11-29T11:38:16.076Z,90840.13
2022-11-29T11:39:37.631Z,90845.03
2022-11-29T11:41:18.259Z,90835.03
2022-11-29T11:42:40.623Z,90840.13
2022-11-29T11:44:04.517Z,90839.63
2022-11-29T11:45:35.463Z,90844.25
2022-11-29T11:46:56.840Z,90836.38
2022-11-29T11:48:19.260Z,90844.44
2022-11-29T11:49:53.565Z,90837.34
2022-11-29T11:51:24.528Z,90834.22
2022-11-29T11:52:52.480Z,90833.25
2022-11-29T11:54:15.431Z,90835.41
2022-11-29T11:55:36.390Z,90838.38
2022-11-29T11:56:57.645Z,90830.56
2022-11-29T11:58:22.878Z,90832.91
2022-11-29T11:59:48.865Z,90837.81
2022-11-29T12:01:12.702Z,90834.25
2022-11-29T12:02:40.387Z,90836.03
2022-11-29T12:04:27.454Z,90830.28
2022-11-29T12:05:52.800Z,90833.13
2022-11-29T12:07:38.750Z,90839.56
2022-11-29T12:09:19.475Z,90832.56
2022-11-29T12:10:41.319Z,90832.56
2022-11-29T12:12:20.388Z,90830.03
2022-11-29T12:13:49.075Z,90829.59
2022-11-29T12:15:28.738Z,90830.59
2022-11-29T12:16:55.915Z,90830.03
2022-11-29T12:18:44.516Z,90825.69
2022-11-29T12:20:28.612Z,90817.03
2022-11-29T12:21:55.895Z,90817.41
2022-11-29T12:23:16.811Z,90817.75
2022-11-29T12:25:00.016Z,90819.09
2022-11-29T12:28:20.072Z,90817.94
2022-11-29T12:29:41.534Z,90816.72
2022-11-29T12:31:37.018Z,90825.09
2022-11-29T12:33:17.827Z,90824.53
2022-11-29T12:35:09.125Z,90831.25
2022-11-29T12:36:35.866Z,90822.63
2022-11-29T12:38:12.470Z,90821.84
2022-11-29T12:39:42.456Z,90815.75
2022-11-29T12:41:52.435Z,90824.94
2022-11-29T12:43:23.891Z,90817.72
2022-11-29T12:45:01.823Z,90824.16
2022-11-29T12:46:26.294Z,90822.97
2022-11-29T12:48:06.086Z,90817.88
2022-11-29T12:49:34.551Z,90820.22
2022-11-29T12:51:02.158Z,90816.88
2022-11-29T12:52:58.131Z,90814.53
2022-11-29T12:54:28.225Z,90826.28
2022-11-29T12:56:07.752Z,90823.16
2022-11-29T12:57:35.307Z,90826.06
2022-11-29T12:59:23.767Z,90819.38
2022-11-29T13:00:51.456Z,90825.31
2022-11-29T13:02:22.255Z,90828.63
2022-11-29T13:04:06.565Z,90824.88
2022-11-29T13:05:30.482Z,90825.88
2022-11-29T13:07:17.387Z,90836.06
2022-11-29T13:09:06.082Z,90826.88
2022-11-29T13:10:32.690Z,90825.72
2022-11-29T13:12:43.338Z,90827.91
2022-11-29T13:14:44.372Z,90832.81
2022-11-29T13:18:16.956Z,90831.25
2022-11-29T13:19:55.532Z,90827.75
2022-11-29T13:21:24.346Z,90834.41
2022-11-29T13:22:59.981Z,90835.59
2022-11-29T13:24:36.067Z,90831.34
2022-11-29T13:26:05.870Z,90834.47
2022-11-29T13:27:32.739Z,90841.56
2022-11-29T13:28:54.526Z,90847.63
2022-11-29T13:30:16.322Z,90846.06
2022-11-29T13:31:39.161Z,90850.00
2022-11-29T13:33:17.659Z,90846.31
2022-11-29T13:34:47.441Z,90843.97
2022-11-29T13:36:18.964Z,90855.38
2022-11-29T13:37:51.983Z,90847.31
2022-11-29T13:39:34.265Z,90844.97
2022-11-29T13:41:04.802Z,90845.75
2022-11-29T13:42:37.235Z,90847.94
2022-11-29T13:44:32.462Z,90847.38
2022-11-29T13:46:28.998Z,90849.91
2022-11-29T13:47:53.367Z,90841.47
2022-11-29T13:49:52.918Z,90834.78
2022-11-29T13:51:24.258Z,90835.78
2022-11-29T13:52:47.300Z,90839.13
2022-11-29T13:54:32.858Z,90837.97
2022-11-29T13:56:01.470Z,90843.28
2022-11-29T13:57:22.386Z,90843.63
2022-11-29T13:58:43.371Z,90842.84
2022-11-29T14:00:05.452Z,90843.28
2022-11-29T14:01:26.878Z,90847.22
2022-11-29T14:02:48.157Z,90842.13
2022-11-29T14:04:27.589Z,90838.03
2022-11-29T14:05:51.054Z,90842.53
2022-11-29T14:07:21.175Z,90841.94
2022-11-29T14:10:38.577Z,90839.59
2022-11-29T14:12:36.792Z,90841.78
2022-11-29T14:14:15.820Z,90841.63
2022-11-29T14:15:37.363Z,90844.78
2022-11-29T14:17:04.297Z,90845.19
2022-11-29T14:18:37.220Z,90846.00
2022-11-29T14:20:23.107Z,90842.50
2022-11-29T14:21:59.067Z,90849.00
2022-11-29T14:23:40.538Z,90851.75
2022-11-29T14:25:49.133Z,90846.66
2022-11-29T14:27:09.147Z,90851.38
2022-11-29T14:28:33.049Z,90849.00
2022-11-29T14:29:55.240Z,90846.88
2022-11-29T14:31:49.678Z,90852.56
2022-11-29T14:33:13.995Z,90860.00
2022-11-29T14:34:41.793Z,90855.91
2022-11-29T14:36:14.870Z,90853.34
2022-11-29T14:37:45.222Z,90853.19
2022-11-29T14:39:41.185Z,90852.03
2022-11-29T14:41:41.215Z,90857.72
2022-11-29T14:43:14.283Z,90849.88
2022-11-29T14:44:44.922Z,90854.19
2022-11-29T14:46:29.002Z,90849.50
2022-11-29T14:47:50.846Z,90851.06
2022-11-29T14:49:23.801Z,90853.03
2022-11-29T14:50:44.773Z,90848.91
2022-11-29T14:52:14.854Z,90851.25
2022-11-29T14:53:38.048Z,90854.38
2022-11-29T14:55:21.177Z,90861.66
2022-11-29T14:56:45.135Z,90855.78
2022-11-29T14:58:17.230Z,90850.06
2022-11-29T14:59:47.281Z,90858.31
2022-11-29T15:01:11.002Z,90857.91
2022-11-29T15:03:11.185Z,90855.00
2022-11-29T15:04:37.807Z,90853.41
2022-11-29T15:06:25.124Z,90857.34
2022-11-29T15:07:54.606Z,90863.03
2022-11-29T15:09:19.648Z,90861.09
2022-11-29T15:10:45.018Z,90861.31
2022-11-29T15:12:12.649Z,90857.00
2022-11-29T15:13:36.399Z,90860.91
2022-11-29T15:15:15.995Z,90859.34
2022-11-29T15:16:55.122Z,90860.13
2022-11-29T15:18:33.442Z,90854.25
2022-11-29T15:20:16.168Z,90857.78
2022-11-29T15:21:46.780Z,90859.53
2022-11-29T15:23:15.655Z,90854.44
2022-11-29T15:25:13.997Z,90853.88
2022-11-29T15:26:34.970Z,90859.75
2022-11-29T15:27:58.501Z,90864.06
2022-11-29T15:29:21.445Z,90851.31
2022-11-29T15:30:42.700Z,90860.28
2022-11-29T15:32:05.989Z,90858.72
2022-11-29T15:33:28.444Z,90863.03
2022-11-29T15:34:53.373Z,90868.91
2022-11-29T15:36:20.546Z,90862.28
2022-11-29T15:37:44.662Z,90864.41
2022-11-29T15:39:05.892Z,90866.38
2022-11-29T15:40:35.644Z,90865.22
2022-11-29T15:42:08.386Z,90863.25
2022-11-29T15:43:37.808Z,90872.47
2022-11-29T15:44:59.046Z,90869.53
2022-11-29T15:46:23.808Z,90867.97
2022-11-29T15:47:45.440Z,90876.38
2022-11-29T15:49:26.503Z,90867.78
2022-11-29T15:51:00.832Z,90872.47
2022-11-29T15:52:32.189Z,90876.38
2022-11-29T15:54:11.640Z,90882.63
2022-11-29T15:55:33.777Z,90880.09
2022-11-29T15:57:06.882Z,90868.34
2022-11-29T15:58:31.394Z,90868.34
2022-11-29T15:59:56.909Z,90888.47
2022-11-29T16:01:21.187Z,90880.50
2022-11-29T16:02:50.706Z,90873.25
2022-11-29T16:04:20.210Z,90878.13
2022-11-29T16:05:41.113Z,90876.56
2022-11-29T16:07:04.570Z,90880.69
2022-11-29T16:08:29.492Z,90883.22
2022-11-29T16:10:04.154Z,90879.50
2022-11-29T16:11:28.887Z,90881.84
2022-11-29T16:13:04.036Z,90889.88
2022-11-29T16:14:28.094Z,90884.78
2022-11-29T16:15:49.487Z,90886.34
2022-11-29T16:17:11.337Z,90894.78
2022-11-29T16:18:32.585Z,90893.00
2022-11-29T16:20:21.146Z,90885.56
2022-11-29T16:21:44.369Z,90890.47
2022-11-29T16:23:08.220Z,90893.38
2022-11-29T16:24:29.676Z,90890.03
2022-11-29T16:26:11.954Z,90896.13
2022-11-29T16:27:35.308Z,90887.91
2022-11-29T16:28:58.007Z,90893.00
2022-11-29T16:30:24.728Z,90892.22
2022-11-29T16:31:45.819Z,90896.53
2022-11-29T16:33:06.933Z,90891.25
2022-11-29T16:34:33.027Z,90892.22
2022-11-29T16:36:19.165Z,90888.31
2022-11-29T16:37:44.989Z,90889.88
2022-11-29T16:39:16.168Z,90884.00
2022-11-29T16:40:37.155Z,90887.94
2022-11-29T16:42:08.508Z,90888.13
2022-11-29T16:43:59.594Z,90883.63
2022-11-29T16:45:41.053Z,90890.28
2022-11-29T16:47:15.898Z,90884.78
2022-11-29T16:48:40.511Z,90893.41
2022-11-29T16:50:02.378Z,90890.47
2022-11-29T16:51:50.297Z,90889.13
2022-11-29T16:53:37.481Z,90893.59
2022-11-29T16:54:59.309Z,90898.31
2022-11-29T16:56:23.308Z,90896.72
2022-11-29T16:57:46.025Z,90898.69
2022-11-29T16:59:17.223Z,90898.13
2022-11-29T17:00:47.713Z,90905.94
2022-11-29T17:02:12.838Z,90901.44
2022-11-29T17:03:34.605Z,90901.44
2022-11-29T17:04:56.656Z,90913.56
2022-11-29T17:06:24.135Z,90916.13
2022-11-29T17:07:45.447Z,90908.09
2022-11-29T17:09:06.546Z,90911.63
2022-11-29T17:10:28.973Z,90913.38
2022-11-29T17:11:50.014Z,90904.97
2022-11-29T17:13:11.857Z,90913.38
2022-11-29T17:14:33.454Z,90905.53
2022-11-29T17:15:54.789Z,90909.06
2022-11-29T17:17:17.706Z,90904.97
2022-11-29T17:18:41.030Z,90903.97
2022-11-29T17:20:02.216Z,90904.19
2022-11-29T17:21:25.987Z,90901.63
2022-11-29T17:22:46.969Z,90904.59
2022-11-29T17:24:12.921Z,90907.13
2022-11-29T17:25:33.845Z,90906.91
2022-11-29T17:26:55.564Z,90899.28
2022-11-29T17:28:16.578Z,90903.19
2022-11-29T17:29:37.747Z,90903.97
2022-11-29T17:30:58.786Z,90904.38
2022-11-29T17:32:26.289Z,90906.53
2022-11-29T17:33:48.358Z,90910.06
2022-11-29T17:35:09.459Z,90904.97
2022-11-29T17:36:30.745Z,90908.50
2022-11-29T17:37:52.469Z,90916.13
2022-11-29T17:39:15.581Z,90916.13
2022-11-29T17:40:38.629Z,90916.13
2022-11-29T17:42:00.160Z,90910.81
2022-11-29T17:43:21.293Z,90923.94
2022-11-29T17:44:42.303Z,90922.38
2022-11-29T17:46:09.042Z,90922.38
2022-11-29T17:47:30.260Z,90920.03
2022-11-29T17:48:52.308Z,90925.09
2022-11-29T17:50:13.113Z,90927.84
2022-11-29T17:51:54.012Z,90934.13
2022-11-29T17:53:15.621Z,90927.28
2022-11-29T17:54:36.934Z,90924.72